createdAt,value
2022-10-04T00:01:14.000Z,11.3
2022-10-04T00:04:47.000Z,11.2
2022-10-04T00:07:38.000Z,9.6
2022-10-04T00:11:11.000Z,13.3
2022-10-04T00:14:43.000Z,10.4
2022-10-04T00:18:16.000Z,9
2022-10-04T00:21:49.000Z,10.2
2022-10-04T00:25:21.000Z,12.1
2022-10-04T00:28:54.000Z,10.9
2022-10-04T00:32:27.000Z,14.4
2022-10-04T00:35:59.000Z,7.7
2022-10-04T00:39:32.000Z,12.7
2022-10-04T00:43:04.000Z,10.4
2022-10-04T00:45:56.000Z,13.1
2022-10-04T00:49:29.000Z,9.7
2022-10-04T00:53:01.000Z,9.8
2022-10-04T00:56:34.000Z,9.2
2022-10-04T01:00:06.000Z,10.6
2022-10-04T01:03:40.000Z,14.1
2022-10-04T01:07:12.000Z,11
2022-10-04T01:10:45.000Z,10.4
2022-10-04T01:14:17.000Z,12.9
2022-10-04T01:17:50.000Z,11.4
2022-10-04T01:21:27.000Z,10.3
2022-10-04T01:24:18.000Z,12.4
2022-10-04T01:27:51.000Z,11.2
2022-10-04T01:31:23.000Z,11.5
2022-10-04T01:34:56.000Z,11.6
2022-10-04T01:38:29.000Z,9.5
2022-10-04T01:42:02.000Z,12.4
2022-10-04T01:45:34.000Z,9
2022-10-04T01:49:07.000Z,10.3
2022-10-04T01:52:40.000Z,9.5
2022-10-04T01:56:12.000Z,12.8
2022-10-04T01:59:45.000Z,10
2022-10-04T02:02:36.000Z,11
2022-10-04T02:06:09.000Z,8.7
2022-10-04T02:09:41.000Z,11.9
2022-10-04T02:13:14.000Z,10.3
2022-10-04T02:16:46.000Z,11.2
2022-10-04T02:20:19.000Z,13.7
2022-10-04T02:23:52.000Z,12.4
2022-10-04T02:27:24.000Z,13.8
2022-10-04T02:30:57.000Z,14.1
2022-10-04T02:34:30.000Z,16.3
2022-10-04T02:38:03.000Z,10.6
2022-10-04T02:40:54.000Z,12.6
2022-10-04T02:44:27.000Z,12.8
2022-10-04T02:47:59.000Z,12.5
2022-10-04T02:51:32.000Z,11.2
2022-10-04T02:55:05.000Z,10.4
2022-10-04T02:58:37.000Z,12
2022-10-04T03:02:10.000Z,10.3
2022-10-04T03:05:54.000Z,11
2022-10-04T03:09:26.000Z,9.5
2022-10-04T03:12:59.000Z,8.7
2022-10-04T03:16:31.000Z,12.6
2022-10-04T03:19:23.000Z,13.7
2022-10-04T03:22:56.000Z,14.3
2022-10-04T03:26:28.000Z,15.2
2022-10-04T03:30:01.000Z,17.8
2022-10-04T03:33:34.000Z,11.3
2022-10-04T03:37:06.000Z,8.6
2022-10-04T03:40:39.000Z,9
2022-10-04T03:44:11.000Z,11.6
2022-10-04T03:47:44.000Z,11.1
2022-10-04T03:51:17.000Z,9.8
2022-10-04T03:54:49.000Z,7.5
2022-10-04T03:57:41.000Z,15.8
2022-10-04T04:01:13.000Z,13.2
2022-10-04T04:04:46.000Z,12.2
2022-10-04T04:08:18.000Z,13.2
2022-10-04T04:11:51.000Z,12.2
2022-10-04T04:15:24.000Z,15.6
2022-10-04T04:18:56.000Z,12
2022-10-04T04:22:29.000Z,9
2022-10-04T04:26:01.000Z,8.6
2022-10-04T04:29:34.000Z,12.1
2022-10-04T04:33:07.000Z,13.9
2022-10-04T04:36:04.000Z,10.4
2022-10-04T04:39:37.000Z,11.8
2022-10-04T04:43:10.000Z,15.8
2022-10-04T04:46:42.000Z,12.4
2022-10-04T04:50:15.000Z,10.4
2022-10-04T04:53:48.000Z,11.3
2022-10-04T04:57:20.000Z,10.8
2022-10-04T05:00:53.000Z,10.6
2022-10-04T05:04:26.000Z,11.5
2022-10-04T05:07:59.000Z,16.8
2022-10-04T05:11:31.000Z,13.9
2022-10-04T05:14:22.000Z,17.1
2022-10-04T05:17:55.000Z,12.3
2022-10-04T05:21:28.000Z,25.2
2022-10-04T05:25:05.000Z,37
2022-10-04T05:28:38.000Z,12.9
2022-10-04T05:32:11.000Z,17.6
2022-10-04T05:35:43.000Z,12.7
2022-10-04T05:39:16.000Z,12.1
2022-10-04T05:42:49.000Z,9.1
2022-10-04T05:46:21.000Z,8.9
2022-10-04T05:49:54.000Z,12.2
2022-10-04T05:52:45.000Z,8.3
2022-10-04T05:56:18.000Z,11.7
2022-10-04T05:59:50.000Z,11.7
2022-10-04T06:03:29.000Z,8.9
2022-10-04T06:07:02.000Z,8.2
2022-10-04T06:10:34.000Z,9.6
2022-10-04T06:14:07.000Z,9.6
2022-10-04T06:17:40.000Z,9.2
2022-10-04T06:21:12.000Z,12.3
2022-10-04T06:24:45.000Z,13.9
2022-10-04T06:28:17.000Z,14.7
2022-10-04T06:31:09.000Z,13.6
2022-10-04T06:34:42.000Z,13.1
2022-10-04T06:38:14.000Z,10.8
2022-10-04T06:41:47.000Z,17.1
2022-10-04T06:45:19.000Z,12
2022-10-04T06:48:52.000Z,16.2
2022-10-04T06:52:24.000Z,15.2
2022-10-04T06:55:57.000Z,11.9
2022-10-04T06:59:30.000Z,16
2022-10-04T07:03:02.000Z,14
2022-10-04T07:07:05.000Z,12
2022-10-04T07:09:56.000Z,11.9
2022-10-04T07:13:29.000Z,15.6
2022-10-04T07:17:01.000Z,13.6
2022-10-04T07:20:34.000Z,13.3
2022-10-04T07:24:07.000Z,10.1
2022-10-04T07:27:39.000Z,14.2
2022-10-04T07:31:12.000Z,17.6
2022-10-04T07:34:45.000Z,12.8
2022-10-04T07:38:20.000Z,11.3
2022-10-04T07:41:53.000Z,12.5
2022-10-04T07:45:25.000Z,12.5
2022-10-04T07:48:17.000Z,11.4
2022-10-04T07:51:49.000Z,13.1
2022-10-04T07:55:22.000Z,11.2
2022-10-04T07:58:55.000Z,13.9
2022-10-04T08:02:27.000Z,9.8
2022-10-04T08:06:00.000Z,10.9
2022-10-04T08:09:33.000Z,13
2022-10-04T08:13:05.000Z,11.9
2022-10-04T08:16:38.000Z,16.1
2022-10-04T08:20:11.000Z,12.7
2022-10-04T08:23:44.000Z,17.8
2022-10-04T08:26:35.000Z,14.1
2022-10-04T08:30:08.000Z,13.1
2022-10-04T08:33:41.000Z,16.6
2022-10-04T08:37:14.000Z,14.8
2022-10-04T08:40:46.000Z,19
2022-10-04T08:44:19.000Z,24.1
2022-10-04T08:47:52.000Z,22.7
2022-10-04T08:51:24.000Z,19.7
2022-10-04T08:54:57.000Z,16.1
2022-10-04T08:58:30.000Z,15.8
2022-10-04T09:02:02.000Z,15.3
2022-10-04T09:04:53.000Z,15.2
2022-10-04T09:08:26.000Z,17.3
2022-10-04T09:11:58.000Z,14.4
2022-10-04T09:15:31.000Z,16.4
2022-10-04T09:19:04.000Z,15.5
2022-10-04T09:22:38.000Z,19.7
2022-10-04T09:26:11.000Z,19.6
2022-10-04T09:29:53.000Z,15.5
2022-10-04T09:33:26.000Z,16.8
2022-10-04T09:36:59.000Z,14.9
2022-10-04T09:40:31.000Z,16.7
2022-10-04T09:43:23.000Z,14.9
2022-10-04T09:46:55.000Z,16.1
2022-10-04T09:50:28.000Z,14.7
2022-10-04T09:54:00.000Z,10.8
2022-10-04T09:57:33.000Z,12.4
2022-10-04T10:01:06.000Z,11.7
2022-10-04T10:04:39.000Z,11.7
2022-10-04T10:08:11.000Z,9.9
2022-10-04T10:11:44.000Z,9.2
2022-10-04T10:15:17.000Z,7.3
2022-10-04T10:18:49.000Z,6.6
2022-10-04T10:21:40.000Z,7.1
2022-10-04T10:25:13.000Z,5.7
2022-10-04T10:28:45.000Z,8.8
2022-10-04T10:32:18.000Z,7
2022-10-04T10:35:51.000Z,5.6
2022-10-04T10:39:23.000Z,7.1
2022-10-04T10:42:56.000Z,8.2
2022-10-04T10:46:29.000Z,9.6
2022-10-04T10:50:01.000Z,5.7
2022-10-04T10:53:34.000Z,5.6
2022-10-04T10:57:07.000Z,8.6
2022-10-04T10:59:58.000Z,5.5
2022-10-04T11:03:31.000Z,8.2
2022-10-04T11:07:04.000Z,5.6
2022-10-04T11:10:36.000Z,7.5
2022-10-04T11:14:09.000Z,6.9
2022-10-04T11:17:42.000Z,7.1
2022-10-04T11:21:14.000Z,7.8
2022-10-04T11:24:47.000Z,5.1
2022-10-04T11:28:20.000Z,5.8
2022-10-04T11:31:52.000Z,5.6
2022-10-04T11:35:25.000Z,7
2022-10-04T11:38:16.000Z,5.2
2022-10-04T11:41:49.000Z,5.4
2022-10-04T11:45:22.000Z,7.1
2022-10-04T11:48:54.000Z,6.6
2022-10-04T11:52:27.000Z,7
2022-10-04T11:56:00.000Z,5
2022-10-04T11:59:32.000Z,7.9
2022-10-04T12:03:05.000Z,5
2022-10-04T12:06:38.000Z,7.6
2022-10-04T12:10:11.000Z,7.5
2022-10-04T12:13:44.000Z,6.2
2022-10-04T12:16:35.000Z,5.3
2022-10-04T12:20:08.000Z,5.3
2022-10-04T12:23:41.000Z,5.8
2022-10-04T12:27:13.000Z,6.6
2022-10-04T12:30:46.000Z,7.9
2022-10-04T12:34:19.000Z,5.5
2022-10-04T12:37:51.000Z,4.8
2022-10-04T12:41:24.000Z,5.2
2022-10-04T12:44:57.000Z,6
2022-10-04T12:48:29.000Z,3.3
2022-10-04T12:52:02.000Z,3.8
2022-10-04T12:54:53.000Z,3.7
2022-10-04T12:58:26.000Z,6
2022-10-04T13:01:58.000Z,6.4
2022-10-04T13:05:31.000Z,4.7
2022-10-04T13:09:04.000Z,8.2
2022-10-04T13:12:36.000Z,5.1
2022-10-04T13:20:11.000Z,6.4
2022-10-04T13:23:45.000Z,4.1
2022-10-04T13:27:17.000Z,4
2022-10-04T13:30:50.000Z,8.3
2022-10-04T13:33:41.000Z,6.2
2022-10-04T13:37:14.000Z,9.5
2022-10-04T13:40:46.000Z,5
2022-10-04T13:44:19.000Z,6.5
2022-10-04T13:47:52.000Z,5.3
2022-10-04T13:51:24.000Z,4.6
2022-10-04T13:54:57.000Z,5.7
2022-10-04T13:58:29.000Z,5.9
2022-10-04T14:02:02.000Z,5.3
2022-10-04T14:05:35.000Z,4.3
2022-10-04T14:09:07.000Z,4.8
2022-10-04T14:11:58.000Z,5.5
2022-10-04T14:15:31.000Z,5
2022-10-04T14:19:04.000Z,4.9
2022-10-04T14:22:37.000Z,4.3
2022-10-04T14:26:09.000Z,3.8
2022-10-04T14:29:42.000Z,5.8
2022-10-04T14:33:14.000Z,4
2022-10-04T14:36:47.000Z,4
2022-10-04T14:40:25.000Z,3.1
2022-10-04T14:43:57.000Z,4.2
2022-10-04T14:47:30.000Z,4.4
2022-10-04T14:50:21.000Z,6.5
2022-10-04T14:53:54.000Z,3.1
2022-10-04T14:57:27.000Z,4.5
2022-10-04T15:00:59.000Z,5.2
2022-10-04T15:04:32.000Z,5.4
2022-10-04T15:08:05.000Z,4.7
2022-10-04T15:11:37.000Z,2.4
2022-10-04T15:15:33.000Z,4.3
2022-10-04T15:19:06.000Z,5.6
2022-10-04T15:22:38.000Z,3
2022-10-04T15:26:11.000Z,3.3
2022-10-04T15:29:02.000Z,4.7
2022-10-04T15:32:35.000Z,4.1
2022-10-04T15:36:07.000Z,4.6
2022-10-04T15:39:40.000Z,2.9
2022-10-04T15:43:13.000Z,5.1
2022-10-04T15:46:45.000Z,3.5
2022-10-04T15:50:18.000Z,3
2022-10-04T15:53:51.000Z,5.1
2022-10-04T15:57:23.000Z,5.8
2022-10-04T16:00:56.000Z,6.3
2022-10-04T16:04:29.000Z,5.5
2022-10-04T16:07:21.000Z,5.7
2022-10-04T16:10:53.000Z,5.7
2022-10-04T16:14:26.000Z,6.7
2022-10-04T16:17:59.000Z,6.2
2022-10-04T16:21:31.000Z,7.5
2022-10-04T16:25:04.000Z,7.5
2022-10-04T16:28:36.000Z,8.8
2022-10-04T16:32:26.000Z,7
2022-10-04T16:35:58.000Z,8.4
2022-10-04T16:39:31.000Z,5.9
2022-10-04T16:43:04.000Z,10.8
2022-10-04T16:45:55.000Z,8.2
2022-10-04T16:49:28.000Z,8.1
2022-10-04T16:53:06.000Z,6.6
2022-10-04T16:56:38.000Z,6.6
2022-10-04T17:00:11.000Z,6.5
2022-10-04T17:03:44.000Z,8.2
2022-10-04T17:07:17.000Z,6.6
2022-10-04T17:10:49.000Z,11.2
2022-10-04T17:14:22.000Z,5.6
2022-10-04T17:17:55.000Z,7.7
2022-10-04T17:21:27.000Z,7.5
2022-10-04T17:24:18.000Z,10
2022-10-04T17:27:51.000Z,8.9
2022-10-04T17:31:24.000Z,10.4
2022-10-04T17:34:57.000Z,9.6
2022-10-04T17:38:29.000Z,13.3
2022-10-04T17:42:07.000Z,17.6
2022-10-04T17:45:40.000Z,12.5
2022-10-04T17:49:14.000Z,16
2022-10-04T17:52:47.000Z,15
2022-10-04T17:56:19.000Z,9.9
2022-10-04T17:59:52.000Z,10
2022-10-04T18:02:43.000Z,10.4
2022-10-04T18:06:16.000Z,10.2
2022-10-04T18:09:48.000Z,8.5
2022-10-04T18:13:21.000Z,8.1
2022-10-04T18:16:53.000Z,8.6
2022-10-04T18:20:26.000Z,11.4
2022-10-04T18:23:59.000Z,7.4
2022-10-04T18:27:31.000Z,6.8
2022-10-04T18:31:04.000Z,6
2022-10-04T18:34:37.000Z,8.9
2022-10-04T18:38:09.000Z,10.4
2022-10-04T18:41:01.000Z,6.4
2022-10-04T18:44:33.000Z,7.2
2022-10-04T18:48:06.000Z,10.1
2022-10-04T18:51:38.000Z,9.3
2022-10-04T18:55:11.000Z,12.3
2022-10-04T18:58:44.000Z,15
2022-10-04T19:02:17.000Z,13.6
2022-10-04T19:05:49.000Z,21
2022-10-04T19:09:22.000Z,13.8
2022-10-04T19:12:55.000Z,12.7
2022-10-04T19:16:27.000Z,14.7
2022-10-04T19:19:19.000Z,13.8
2022-10-04T19:22:51.000Z,15.9
2022-10-04T19:26:24.000Z,13.2
2022-10-04T19:29:58.000Z,17.5
2022-10-04T19:33:30.000Z,11.8
2022-10-04T19:37:03.000Z,13.3
2022-10-04T19:40:36.000Z,15.1
2022-10-04T19:44:08.000Z,10.3
2022-10-04T19:47:41.000Z,10.6
2022-10-04T19:51:13.000Z,9.2
2022-10-04T19:54:46.000Z,9.9
2022-10-04T19:57:37.000Z,13.6
2022-10-04T20:01:10.000Z,12.1
2022-10-04T20:04:47.000Z,8.9
2022-10-04T20:08:19.000Z,9.5
2022-10-04T20:11:52.000Z,9.9
2022-10-04T20:15:25.000Z,9.3
2022-10-04T20:18:57.000Z,11.7
2022-10-04T20:22:30.000Z,8.9
2022-10-04T20:26:03.000Z,11.7
2022-10-04T20:29:35.000Z,9.5
2022-10-04T20:33:08.000Z,8.7
2022-10-04T20:35:59.000Z,7.7
2022-10-04T20:39:32.000Z,6.9
2022-10-04T20:43:04.000Z,9.9
2022-10-04T20:46:37.000Z,7
2022-10-04T20:50:10.000Z,7.8
2022-10-04T20:53:43.000Z,8.2
2022-10-04T20:57:16.000Z,8.4
2022-10-04T21:00:49.000Z,8.3
2022-10-04T21:04:21.000Z,8.4
2022-10-04T21:07:54.000Z,9.6
2022-10-04T21:11:27.000Z,10.1
2022-10-04T21:14:17.000Z,7.6
2022-10-04T21:17:50.000Z,8.4
2022-10-04T21:21:23.000Z,11.8
2022-10-04T21:24:55.000Z,10
2022-10-04T21:28:28.000Z,9.1
2022-10-04T21:32:01.000Z,7.5
2022-10-04T21:35:33.000Z,10.7
2022-10-04T21:39:06.000Z,9.2
2022-10-04T21:42:38.000Z,6.5
2022-10-04T21:46:11.000Z,7.3
2022-10-04T21:49:46.000Z,9
2022-10-04T21:52:37.000Z,6.7
2022-10-04T21:56:09.000Z,7.5
2022-10-04T21:59:42.000Z,5.2
2022-10-04T22:03:14.000Z,13.8
2022-10-04T22:06:47.000Z,10
2022-10-04T22:10:19.000Z,9.6
2022-10-04T22:13:52.000Z,14.4
2022-10-04T22:17:25.000Z,8.5
2022-10-04T22:20:57.000Z,10.3
2022-10-04T22:24:34.000Z,7.6
2022-10-04T22:28:07.000Z,10.4
2022-10-04T22:30:59.000Z,9.6
2022-10-04T22:34:31.000Z,8
2022-10-04T22:38:04.000Z,9.2
2022-10-04T22:41:36.000Z,11.6
2022-10-04T22:45:09.000Z,8.3
2022-10-04T22:48:42.000Z,8.5
2022-10-04T22:52:15.000Z,8.2
2022-10-04T22:55:47.000Z,8.1
2022-10-04T22:59:20.000Z,8.1
2022-10-04T23:02:52.000Z,7.3
2022-10-04T23:06:25.000Z,6.2
2022-10-04T23:09:17.000Z,6.5
2022-10-04T23:12:49.000Z,8.3
2022-10-04T23:16:22.000Z,6.2
2022-10-04T23:19:55.000Z,10.3
2022-10-04T23:23:27.000Z,6.6
2022-10-04T23:27:00.000Z,5.8
2022-10-04T23:30:33.000Z,6.9
2022-10-04T23:34:05.000Z,9.7
2022-10-04T23:37:38.000Z,7.4
2022-10-04T23:41:11.000Z,8.9
2022-10-04T23:44:43.000Z,9.2
2022-10-04T23:47:34.000Z,7.6
2022-10-04T23:51:07.000Z,10.7
2022-10-04T23:54:39.000Z,6.2
2022-10-04T23:58:12.000Z,7.1
